createdAt,value
2018-08-22T00:00:22.425Z,1.33
2018-08-22T00:04:26.147Z,2.43
2018-08-22T00:08:35.091Z,2.67
2018-08-22T00:12:38.797Z,2.13
2018-08-22T00:16:42.499Z,3.63
2018-08-22T00:20:46.190Z,3.63
2018-08-22T00:24:49.893Z,4.00
2018-08-22T00:28:53.606Z,2.63
2018-08-22T00:32:57.322Z,1.90
2018-08-22T00:37:01.105Z,5.70
2018-08-22T00:41:04.815Z,2.63
2018-08-22T00:45:08.496Z,1.37
2018-08-22T00:49:12.150Z,1.00
2018-08-22T00:53:15.838Z,2.53
2018-08-22T00:57:19.567Z,6.07
2018-08-22T01:01:23.289Z,2.30
2018-08-22T01:05:27.078Z,3.77
2018-08-22T01:09:30.740Z,0.90
2018-08-22T01:13:34.446Z,2.80
2018-08-22T01:17:38.164Z,1.30
2018-08-22T01:21:41.913Z,3.50
2018-08-22T01:25:45.644Z,2.33
2018-08-22T01:29:50.276Z,6.70
2018-08-22T01:33:53.978Z,4.53
2018-08-22T01:37:57.668Z,3.23
2018-08-22T01:42:01.393Z,2.97
2018-08-22T01:46:05.143Z,2.57
2018-08-22T01:50:08.839Z,2.03
2018-08-22T01:54:12.533Z,4.53
2018-08-22T01:58:16.329Z,3.30
2018-08-22T02:02:20.034Z,1.40
2018-08-22T02:06:23.732Z,5.13
2018-08-22T02:10:27.539Z,2.90
2018-08-22T02:14:31.225Z,1.27
2018-08-22T02:18:34.936Z,2.00
2018-08-22T02:22:38.621Z,3.50
2018-08-22T02:26:42.356Z,3.13
2018-08-22T02:30:46.012Z,3.33
2018-08-22T02:34:49.716Z,1.13
2018-08-22T02:38:53.423Z,2.70
2018-08-22T02:42:57.113Z,2.57
2018-08-22T02:47:00.809Z,1.27
2018-08-22T02:51:04.483Z,1.57
2018-08-22T02:55:08.195Z,2.30
2018-08-22T02:59:11.977Z,2.60
2018-08-22T03:03:15.676Z,1.90
2018-08-22T03:07:19.400Z,2.10
2018-08-22T03:11:23.183Z,2.47
2018-08-22T03:15:26.873Z,2.73
2018-08-22T03:19:30.577Z,4.87
2018-08-22T03:23:34.297Z,1.43
2018-08-22T03:27:38.104Z,3.03
2018-08-22T03:31:41.805Z,3.73
2018-08-22T03:35:45.590Z,1.10
2018-08-22T03:39:49.285Z,2.57
2018-08-22T03:43:53.004Z,4.20
2018-08-22T03:47:56.700Z,2.00
2018-08-22T03:52:00.419Z,6.53
2018-08-22T03:56:04.113Z,2.37
2018-08-22T04:00:07.958Z,1.10
2018-08-22T04:04:11.666Z,2.97
2018-08-22T04:08:15.360Z,2.70
2018-08-22T04:12:19.062Z,1.63
2018-08-22T04:16:22.750Z,1.07
2018-08-22T04:20:26.470Z,6.10
2018-08-22T04:24:30.181Z,3.03
2018-08-22T04:28:33.999Z,1.60
2018-08-22T04:32:37.728Z,1.93
2018-08-22T04:36:41.399Z,1.17
2018-08-22T04:40:45.166Z,2.60
2018-08-22T04:44:49.379Z,1.90
2018-08-22T04:48:53.076Z,2.50
2018-08-22T04:52:56.785Z,3.67
2018-08-22T04:57:00.666Z,3.53
2018-08-22T05:01:04.375Z,1.93
2018-08-22T05:05:08.471Z,2.67
2018-08-22T05:09:12.182Z,1.90
2018-08-22T05:13:15.905Z,2.17
2018-08-22T05:17:19.596Z,2.87
2018-08-22T05:21:23.312Z,2.40
2018-08-22T05:25:27.066Z,1.67
2018-08-22T05:29:30.776Z,1.73
2018-08-22T05:33:34.485Z,3.33
2018-08-22T05:37:38.164Z,1.37
2018-08-22T05:41:42.421Z,5.23
2018-08-22T05:45:46.132Z,7.27
2018-08-22T05:49:49.851Z,4.70
2018-08-22T05:53:53.620Z,2.70
2018-08-22T05:57:57.298Z,3.33
2018-08-22T06:02:01.003Z,3.40
2018-08-22T06:06:04.715Z,1.57
2018-08-22T06:10:08.028Z,2.07
2018-08-22T06:14:12.009Z,2.00
2018-08-22T06:18:15.701Z,3.03
2018-08-22T06:22:19.400Z,2.70
2018-08-22T06:26:23.132Z,3.37
2018-08-22T06:30:26.824Z,2.73
2018-08-22T06:34:30.508Z,2.60
2018-08-22T06:38:34.211Z,4.30
2018-08-22T06:42:37.921Z,4.27
2018-08-22T06:46:41.733Z,4.50
2018-08-22T06:50:45.429Z,4.80
2018-08-22T06:54:49.216Z,1.80
2018-08-22T06:58:52.904Z,5.23
2018-08-22T07:02:56.586Z,3.93
2018-08-22T07:07:00.320Z,2.53
2018-08-22T07:11:04.000Z,2.40
2018-08-22T07:15:08.087Z,7.03
2018-08-22T07:19:11.801Z,5.57
2018-08-22T07:23:15.451Z,2.50
2018-08-22T07:27:19.220Z,3.33
2018-08-22T07:31:22.960Z,7.27
2018-08-22T07:35:26.669Z,2.63
2018-08-22T07:39:36.961Z,2.80
2018-08-22T07:43:40.689Z,3.63
2018-08-22T07:47:44.408Z,1.67
2018-08-22T07:51:48.260Z,14.17
2018-08-22T07:55:52.146Z,8.53
2018-08-22T07:59:55.877Z,53.03
2018-08-22T08:03:59.650Z,8.20
2018-08-22T08:08:03.401Z,4.57
2018-08-22T08:12:07.429Z,8.93
2018-08-22T08:16:11.244Z,6.17
2018-08-22T08:20:14.981Z,9.63
2018-08-22T08:24:18.679Z,6.83
2018-08-22T08:28:22.456Z,13.53
2018-08-22T08:32:26.186Z,3.10
2018-08-22T08:36:29.931Z,1.23
2018-08-22T08:40:33.641Z,15.30
2018-08-22T08:44:37.376Z,9.97
2018-08-22T08:48:41.869Z,4.20
2018-08-22T08:52:45.574Z,2.43
2018-08-22T08:56:52.265Z,5.13
2018-08-22T09:00:56.008Z,8.30
2018-08-22T09:04:59.739Z,6.93
2018-08-22T09:09:04.524Z,11.23
2018-08-22T09:13:09.661Z,7.70
2018-08-22T09:17:13.364Z,7.80
2018-08-22T09:21:17.137Z,6.87
2018-08-22T09:25:20.829Z,2.43
2018-08-22T09:29:25.245Z,4.43
2018-08-22T09:33:28.975Z,5.20
2018-08-22T09:37:32.813Z,1.70
2018-08-22T09:41:36.516Z,10.00
2018-08-22T09:45:40.190Z,6.57
2018-08-22T09:49:43.925Z,8.53
2018-08-22T09:53:48.042Z,2.10
2018-08-22T09:57:51.761Z,4.27
2018-08-22T10:01:55.473Z,3.63
2018-08-22T10:05:59.169Z,4.63
2018-08-22T10:10:02.994Z,4.77
2018-08-22T10:14:06.676Z,4.23
2018-08-22T10:18:10.421Z,2.30
2018-08-22T10:22:14.352Z,2.60
2018-08-22T10:26:18.064Z,14.00
2018-08-22T10:30:21.775Z,2.50
2018-08-22T10:34:25.487Z,2.37
2018-08-22T10:38:29.198Z,1.93
2018-08-22T10:42:32.941Z,1.53
2018-08-22T10:46:36.633Z,3.07
2018-08-22T10:50:40.442Z,1.80
2018-08-22T10:54:44.265Z,1.20
2018-08-22T10:58:48.040Z,2.40
2018-08-22T11:02:51.794Z,2.53
2018-08-22T11:06:55.537Z,5.60
2018-08-22T11:10:59.324Z,5.80
2018-08-22T11:15:03.091Z,9.00
2018-08-22T11:19:06.853Z,4.40
2018-08-22T11:23:21.639Z,2.53
2018-08-22T11:27:36.770Z,4.47
2018-08-22T11:31:51.609Z,4.50
2018-08-22T11:35:54.133Z,3.30
2018-08-22T11:39:57.973Z,4.87
2018-08-22T11:44:01.796Z,4.53
2018-08-22T11:48:05.596Z,6.47
2018-08-22T11:56:09.373Z,4.63
2018-08-22T12:00:13.085Z,3.50
2018-08-22T12:04:18.602Z,6.83
2018-08-22T12:08:22.295Z,4.33
2018-08-22T12:12:26.006Z,6.50
2018-08-22T12:16:29.716Z,4.23
2018-08-22T12:20:33.473Z,3.10
2018-08-22T12:24:37.182Z,3.27
2018-08-22T12:28:40.910Z,4.57
2018-08-22T12:32:44.617Z,4.93
2018-08-22T12:36:48.349Z,8.17
2018-08-22T12:40:52.088Z,4.10
2018-08-22T12:44:55.801Z,3.57
2018-08-22T12:48:59.485Z,5.30
2018-08-22T12:53:03.207Z,4.80
2018-08-22T12:57:06.918Z,3.57
2018-08-22T13:01:10.642Z,3.67
2018-08-22T13:05:14.443Z,3.27
2018-08-22T13:09:18.115Z,2.70
2018-08-22T13:13:21.820Z,3.50
2018-08-22T13:17:25.602Z,3.87
2018-08-22T13:21:29.409Z,5.53
2018-08-22T13:25:33.141Z,3.07
2018-08-22T13:29:36.831Z,5.40
2018-08-22T13:33:40.616Z,6.40
2018-08-22T13:37:44.441Z,5.50
2018-08-22T13:41:48.138Z,6.37
2018-08-22T13:45:51.829Z,3.57
2018-08-22T13:49:55.591Z,3.10
2018-08-22T13:53:59.491Z,4.33
2018-08-22T13:58:03.303Z,4.13
2018-08-22T14:02:07.104Z,4.17
2018-08-22T14:06:10.772Z,5.17
2018-08-22T14:10:14.472Z,6.60
2018-08-22T14:14:18.169Z,4.00
2018-08-22T14:18:21.877Z,3.93
2018-08-22T14:22:25.709Z,3.97
2018-08-22T14:26:29.758Z,8.03
2018-08-22T14:30:33.466Z,5.17
2018-08-22T14:34:37.196Z,4.40
2018-08-22T14:38:40.892Z,4.07
2018-08-22T14:42:44.667Z,3.00
2018-08-22T14:46:48.404Z,3.70
2018-08-22T14:50:52.148Z,3.90
2018-08-22T14:54:55.833Z,4.30
2018-08-22T14:58:59.545Z,5.00
2018-08-22T15:03:03.572Z,3.90
2018-08-22T15:07:07.044Z,6.17
2018-08-22T15:11:10.741Z,4.10
2018-08-22T15:15:14.429Z,7.77
2018-08-22T15:19:18.195Z,6.00
2018-08-22T15:23:21.906Z,4.23
2018-08-22T15:27:25.761Z,5.20
2018-08-22T15:31:29.480Z,6.50
2018-08-22T15:35:33.146Z,4.33
2018-08-22T15:39:36.840Z,4.20
2018-08-22T15:43:40.590Z,4.27
2018-08-22T15:47:44.427Z,5.10
2018-08-22T15:51:48.069Z,4.10
2018-08-22T15:55:51.825Z,3.87
2018-08-22T15:59:55.659Z,12.77
2018-08-22T16:03:59.470Z,3.33
2018-08-22T16:08:03.333Z,5.27
2018-08-22T16:12:07.071Z,7.33
2018-08-22T16:16:10.737Z,5.20
2018-08-22T16:20:14.443Z,4.30
2018-08-22T16:24:18.392Z,4.97
2018-08-22T16:28:22.914Z,3.50
2018-08-22T16:32:26.665Z,5.97
2018-08-22T16:36:31.204Z,3.67
2018-08-22T16:40:36.418Z,3.93
2018-08-22T16:44:40.711Z,3.37
2018-08-22T16:48:47.500Z,4.07
2018-08-22T16:52:51.376Z,3.33
2018-08-22T16:56:55.040Z,5.83
2018-08-22T17:00:58.767Z,6.03
2018-08-22T17:05:02.479Z,3.50
2018-08-22T17:09:08.600Z,7.63
2018-08-22T17:13:12.305Z,6.13
2018-08-22T17:17:16.028Z,17.03
2018-08-22T17:21:19.784Z,12.70
2018-08-22T17:25:23.500Z,8.17
2018-08-22T17:29:27.196Z,7.27
2018-08-22T17:33:35.265Z,10.13
2018-08-22T17:37:47.978Z,5.70
2018-08-22T17:41:51.648Z,3.60
2018-08-22T17:45:55.342Z,5.13
2018-08-22T17:50:08.260Z,3.33
2018-08-22T17:58:18.935Z,4.97
2018-08-22T18:02:22.601Z,5.03
2018-08-22T18:06:26.756Z,4.77
2018-08-22T18:10:32.848Z,7.07
2018-08-22T18:14:36.572Z,4.53
2018-08-22T18:18:40.260Z,12.63
2018-08-22T18:22:43.942Z,3.83
2018-08-22T18:26:47.677Z,6.27
2018-08-22T18:30:51.554Z,7.70
2018-08-22T18:35:07.384Z,4.33
2018-08-22T18:39:13.930Z,4.13
2018-08-22T18:43:17.580Z,4.83
2018-08-22T18:47:21.336Z,6.27
2018-08-22T18:51:25.041Z,8.07
2018-08-22T18:55:30.216Z,4.90
2018-08-22T18:59:33.906Z,7.10
2018-08-22T19:03:37.616Z,4.17
2018-08-22T19:07:52.495Z,9.20
2018-08-22T19:11:56.264Z,5.80
2018-08-22T19:16:01.489Z,3.87
2018-08-22T19:20:05.196Z,3.97
2018-08-22T19:24:08.861Z,4.53
2018-08-22T19:28:12.575Z,5.20
2018-08-22T19:32:16.274Z,7.07
2018-08-22T19:36:20.031Z,6.30
2018-08-22T19:40:25.313Z,5.87
2018-08-22T19:44:28.984Z,8.13
2018-08-22T19:48:32.677Z,12.40
2018-08-22T19:52:36.372Z,5.13
2018-08-22T19:56:40.049Z,6.57
2018-08-22T20:00:43.775Z,4.17
2018-08-22T20:04:47.417Z,10.17
2018-08-22T20:08:55.587Z,4.53
2018-08-22T20:12:59.273Z,4.00
2018-08-22T20:17:03.101Z,5.40
2018-08-22T20:21:06.969Z,4.50
2018-08-22T20:25:11.259Z,7.53
2018-08-22T20:29:14.939Z,6.90
2018-08-22T20:33:18.627Z,9.20
2018-08-22T20:37:22.421Z,8.20
2018-08-22T20:41:26.221Z,6.67
2018-08-22T20:45:33.140Z,8.53
2018-08-22T20:49:36.807Z,6.27
2018-08-22T20:53:40.479Z,5.43
2018-08-22T20:57:44.261Z,5.40
2018-08-22T21:01:53.187Z,6.50
2018-08-22T21:05:56.969Z,4.97
2018-08-22T21:10:00.674Z,5.70
2018-08-22T21:14:04.364Z,7.43
2018-08-22T21:18:08.050Z,5.03
2018-08-22T21:22:23.430Z,8.77
2018-08-22T21:26:39.499Z,8.53
2018-08-22T21:30:50.454Z,9.37
2018-08-22T21:34:54.135Z,12.80
2018-08-22T21:38:57.808Z,8.97
2018-08-22T21:43:01.547Z,9.53
2018-08-22T21:47:09.214Z,9.87
2018-08-22T21:51:12.879Z,10.10
2018-08-22T21:55:16.710Z,9.53
2018-08-22T21:59:20.380Z,13.23
2018-08-22T22:03:33.354Z,14.03
2018-08-22T22:07:37.046Z,14.80
2018-08-22T22:11:40.714Z,18.00
2018-08-22T22:15:46.258Z,13.20
2018-08-22T22:19:50.005Z,16.33
2018-08-22T22:23:53.695Z,15.93
2018-08-22T22:27:57.412Z,15.30
2018-08-22T22:32:01.096Z,11.97
2018-08-22T22:36:04.817Z,19.37
2018-08-22T22:40:08.660Z,15.27
2018-08-22T22:44:12.346Z,15.13
2018-08-22T22:48:26.159Z,20.73
2018-08-22T22:52:33.958Z,17.73
2018-08-22T22:56:37.633Z,19.00
2018-08-22T23:00:41.333Z,18.90
2018-08-22T23:04:49.199Z,18.67
2018-08-22T23:08:52.893Z,18.60
2018-08-22T23:12:56.615Z,19.60
2018-08-22T23:17:00.315Z,20.10
2018-08-22T23:21:04.038Z,19.53
2018-08-22T23:25:07.919Z,19.33
2018-08-22T23:29:11.632Z,21.17
2018-08-22T23:33:15.308Z,24.93
2018-08-22T23:37:19.087Z,23.33
2018-08-22T23:41:22.758Z,23.27
2018-08-22T23:45:26.454Z,20.67
2018-08-22T23:49:30.211Z,21.97
2018-08-22T23:53:39.803Z,23.33
2018-08-22T23:57:43.619Z,25.10
